sensor_id;sensor_type;location;lat;lon;timestamp;P1;durP1;ratioP1;P2;durP2;ratioP2
63818;SDS011;49970;54.976;73.248;2024-02-15T00:00:18;10.43;;;9.52;;
63818;SDS011;49970;54.976;73.248;2024-02-15T00:02:44;11.25;;;9.57;;
63818;SDS011;49970;54.976;73.248;2024-02-15T00:05:15;10.85;;;9.77;;
63818;SDS011;49970;54.976;73.248;2024-02-15T00:07:41;10.32;;;9.23;;
63818;SDS011;49970;54.976;73.248;2024-02-15T00:10:09;11.02;;;9.93;;
63818;SDS011;49970;54.976;73.248;2024-02-15T00:12:36;11.30;;;10.27;;
63818;SDS011;49970;54.976;73.248;2024-02-15T00:15:03;10.40;;;9.30;;
63818;SDS011;49970;54.976;73.248;2024-02-15T00:17:30;12.07;;;10.10;;
63818;SDS011;49970;54.976;73.248;2024-02-15T00:19:56;10.43;;;9.43;;
63818;SDS011;49970;54.976;73.248;2024-02-15T00:22:22;14.05;;;10.63;;
63818;SDS011;49970;54.976;73.248;2024-02-15T00:24:49;12.75;;;9.85;;
63818;SDS011;49970;54.976;73.248;2024-02-15T00:27:16;10.80;;;9.80;;
63818;SDS011;49970;54.976;73.248;2024-02-15T00:29:43;10.50;;;9.43;;
63818;SDS011;49970;54.976;73.248;2024-02-15T00:32:09;12.50;;;10.18;;
63818;SDS011;49970;54.976;73.248;2024-02-15T00:34:36;14.23;;;10.55;;
63818;SDS011;49970;54.976;73.248;2024-02-15T00:37:06;11.52;;;9.93;;
63818;SDS011;49970;54.976;73.248;2024-02-15T00:39:33;22.05;;;12.40;;
63818;SDS011;49970;54.976;73.248;2024-02-15T00:43:04;14.80;;;11.57;;
63818;SDS011;49970;54.976;73.248;2024-02-15T00:45:31;10.18;;;9.13;;
63818;SDS011;49970;54.976;73.248;2024-02-15T00:47:57;18.45;;;11.20;;
63818;SDS011;49970;54.976;73.248;2024-02-15T00:50:23;16.35;;;10.82;;
63818;SDS011;49970;54.976;73.248;2024-02-15T00:52:50;10.60;;;9.75;;
63818;SDS011;49970;54.976;73.248;2024-02-15T00:55:16;12.27;;;9.82;;
63818;SDS011;49970;54.976;73.248;2024-02-15T00:57:42;12.57;;;10.38;;
63818;SDS011;49970;54.976;73.248;2024-02-15T01:00:09;13.80;;;12.38;;
63818;SDS011;49970;54.976;73.248;2024-02-15T01:02:35;17.25;;;10.10;;
63818;SDS011;49970;54.976;73.248;2024-02-15T01:05:02;16.10;;;11.77;;
63818;SDS011;49970;54.976;73.248;2024-02-15T01:07:29;12.02;;;10.93;;
63818;SDS011;49970;54.976;73.248;2024-02-15T01:09:55;21.40;;;11.80;;
63818;SDS011;49970;54.976;73.248;2024-02-15T01:12:22;20.38;;;13.65;;
63818;SDS011;49970;54.976;73.248;2024-02-15T01:14:48;14.80;;;11.73;;
63818;SDS011;49970;54.976;73.248;2024-02-15T01:17:14;20.35;;;11.95;;
63818;SDS011;49970;54.976;73.248;2024-02-15T01:19:41;15.00;;;10.40;;
63818;SDS011;49970;54.976;73.248;2024-02-15T01:22:07;13.18;;;11.93;;
63818;SDS011;49970;54.976;73.248;2024-02-15T01:24:33;17.98;;;10.50;;
63818;SDS011;49970;54.976;73.248;2024-02-15T01:27:00;18.67;;;11.65;;
63818;SDS011;49970;54.976;73.248;2024-02-15T01:29:27;14.15;;;10.60;;
63818;SDS011;49970;54.976;73.248;2024-02-15T01:31:53;16.50;;;10.50;;
63818;SDS011;49970;54.976;73.248;2024-02-15T01:34:19;11.63;;;10.43;;
63818;SDS011;49970;54.976;73.248;2024-02-15T01:36:50;12.02;;;10.65;;
63818;SDS011;49970;54.976;73.248;2024-02-15T01:39:16;11.73;;;10.43;;
63818;SDS011;49970;54.976;73.248;2024-02-15T01:41:46;15.88;;;11.93;;
63818;SDS011;49970;54.976;73.248;2024-02-15T01:44:14;12.32;;;11.02;;
63818;SDS011;49970;54.976;73.248;2024-02-15T01:46:40;14.18;;;10.90;;
63818;SDS011;49970;54.976;73.248;2024-02-15T01:49:07;14.02;;;11.70;;
63818;SDS011;49970;54.976;73.248;2024-02-15T01:51:33;12.57;;;11.27;;
63818;SDS011;49970;54.976;73.248;2024-02-15T01:54:02;11.77;;;10.48;;
63818;SDS011;49970;54.976;73.248;2024-02-15T01:56:30;12.23;;;10.65;;
63818;SDS011;49970;54.976;73.248;2024-02-15T01:58:57;13.88;;;11.02;;
63818;SDS011;49970;54.976;73.248;2024-02-15T02:01:24;15.45;;;13.35;;
63818;SDS011;49970;54.976;73.248;2024-02-15T02:03:51;14.80;;;11.77;;
63818;SDS011;49970;54.976;73.248;2024-02-15T02:06:18;17.40;;;12.23;;
63818;SDS011;49970;54.976;73.248;2024-02-15T02:08:45;14.68;;;12.30;;
63818;SDS011;49970;54.976;73.248;2024-02-15T02:11:11;18.55;;;11.95;;
63818;SDS011;49970;54.976;73.248;2024-02-15T02:13:38;13.50;;;12.10;;
63818;SDS011;49970;54.976;73.248;2024-02-15T02:16:04;12.55;;;11.40;;
63818;SDS011;49970;54.976;73.248;2024-02-15T02:18:54;15.13;;;10.38;;
63818;SDS011;49970;54.976;73.248;2024-02-15T02:21:21;13.80;;;10.98;;
63818;SDS011;49970;54.976;73.248;2024-02-15T02:23:48;15.10;;;11.38;;
63818;SDS011;49970;54.976;73.248;2024-02-15T02:26:22;21.95;;;13.52;;
63818;SDS011;49970;54.976;73.248;2024-02-15T02:28:49;17.88;;;12.80;;
63818;SDS011;49970;54.976;73.248;2024-02-15T02:31:19;14.63;;;11.63;;
63818;SDS011;49970;54.976;73.248;2024-02-15T02:33:51;18.85;;;11.32;;
63818;SDS011;49970;54.976;73.248;2024-02-15T02:36:19;18.35;;;13.27;;
63818;SDS011;49970;54.976;73.248;2024-02-15T02:38:45;10.77;;;9.60;;
63818;SDS011;49970;54.976;73.248;2024-02-15T02:41:16;14.48;;;12.32;;
63818;SDS011;49970;54.976;73.248;2024-02-15T02:43:45;12.77;;;11.43;;
63818;SDS011;49970;54.976;73.248;2024-02-15T02:46:12;16.23;;;11.65;;
63818;SDS011;49970;54.976;73.248;2024-02-15T02:48:38;21.00;;;12.82;;
63818;SDS011;49970;54.976;73.248;2024-02-15T02:51:06;22.13;;;13.35;;
63818;SDS011;49970;54.976;73.248;2024-02-15T02:53:33;19.92;;;13.00;;
63818;SDS011;49970;54.976;73.248;2024-02-15T02:55:59;17.92;;;12.20;;
63818;SDS011;49970;54.976;73.248;2024-02-15T02:58:26;24.40;;;12.48;;
63818;SDS011;49970;54.976;73.248;2024-02-15T03:00:52;18.63;;;13.25;;
63818;SDS011;49970;54.976;73.248;2024-02-15T03:03:18;20.45;;;12.80;;
63818;SDS011;49970;54.976;73.248;2024-02-15T03:05:45;19.95;;;13.55;;
63818;SDS011;49970;54.976;73.248;2024-02-15T03:08:11;17.17;;;12.35;;
63818;SDS011;49970;54.976;73.248;2024-02-15T03:10:43;20.63;;;12.68;;
63818;SDS011;49970;54.976;73.248;2024-02-15T03:13:27;20.98;;;12.73;;
63818;SDS011;49970;54.976;73.248;2024-02-15T03:15:53;18.25;;;13.27;;
63818;SDS011;49970;54.976;73.248;2024-02-15T03:18:19;13.73;;;11.63;;
63818;SDS011;49970;54.976;73.248;2024-02-15T03:20:46;23.17;;;13.82;;
63818;SDS011;49970;54.976;73.248;2024-02-15T03:23:12;23.30;;;14.15;;
63818;SDS011;49970;54.976;73.248;2024-02-15T03:25:38;30.63;;;13.30;;
63818;SDS011;49970;54.976;73.248;2024-02-15T03:29:10;24.13;;;12.15;;
63818;SDS011;49970;54.976;73.248;2024-02-15T03:32:41;18.85;;;12.50;;
63818;SDS011;49970;54.976;73.248;2024-02-15T03:36:12;13.77;;;11.55;;
63818;SDS011;49970;54.976;73.248;2024-02-15T03:38:41;17.98;;;11.70;;
63818;SDS011;49970;54.976;73.248;2024-02-15T03:41:10;18.08;;;11.65;;
63818;SDS011;49970;54.976;73.248;2024-02-15T03:43:37;22.55;;;13.18;;
63818;SDS011;49970;54.976;73.248;2024-02-15T03:46:04;24.85;;;13.70;;
63818;SDS011;49970;54.976;73.248;2024-02-15T03:48:33;22.25;;;14.32;;
63818;SDS011;49970;54.976;73.248;2024-02-15T03:50:59;22.17;;;12.27;;
63818;SDS011;49970;54.976;73.248;2024-02-15T03:53:27;19.45;;;12.55;;
63818;SDS011;49970;54.976;73.248;2024-02-15T03:55:56;20.13;;;11.60;;
63818;SDS011;49970;54.976;73.248;2024-02-15T03:58:22;19.95;;;12.20;;
63818;SDS011;49970;54.976;73.248;2024-02-15T04:00:48;19.27;;;11.45;;
63818;SDS011;49970;54.976;73.248;2024-02-15T04:03:15;11.88;;;9.95;;
63818;SDS011;49970;54.976;73.248;2024-02-15T04:05:41;13.65;;;10.50;;
63818;SDS011;49970;54.976;73.248;2024-02-15T04:08:08;17.50;;;9.77;;
63818;SDS011;49970;54.976;73.248;2024-02-15T04:10:35;14.00;;;11.02;;
63818;SDS011;49970;54.976;73.248;2024-02-15T04:13:01;13.88;;;11.07;;
63818;SDS011;49970;54.976;73.248;2024-02-15T04:15:28;15.32;;;11.10;;
63818;SDS011;49970;54.976;73.248;2024-02-15T04:17:54;12.20;;;10.90;;
63818;SDS011;49970;54.976;73.248;2024-02-15T04:25:05;14.32;;;10.93;;
63818;SDS011;49970;54.976;73.248;2024-02-15T04:28:37;12.15;;;10.48;;
63818;SDS011;49970;54.976;73.248;2024-02-15T04:32:12;9.88;;;9.02;;
63818;SDS011;49970;54.976;73.248;2024-02-15T04:35:44;10.43;;;9.35;;
63818;SDS011;49970;54.976;73.248;2024-02-15T04:42:51;13.32;;;10.98;;
63818;SDS011;49970;54.976;73.248;2024-02-15T04:46:47;14.68;;;10.30;;
63818;SDS011;49970;54.976;73.248;2024-02-15T04:50:42;15.52;;;9.50;;
63818;SDS011;49970;54.976;73.248;2024-02-15T04:53:09;11.93;;;10.68;;
63818;SDS011;49970;54.976;73.248;2024-02-15T04:55:36;10.75;;;9.57;;
63818;SDS011;49970;54.976;73.248;2024-02-15T04:58:03;15.68;;;12.25;;
63818;SDS011;49970;54.976;73.248;2024-02-15T05:00:30;11.10;;;10.05;;
63818;SDS011;49970;54.976;73.248;2024-02-15T05:02:56;10.82;;;9.38;;
63818;SDS011;49970;54.976;73.248;2024-02-15T05:05:23;11.65;;;9.75;;
63818;SDS011;49970;54.976;73.248;2024-02-15T05:07:51;16.45;;;11.18;;
63818;SDS011;49970;54.976;73.248;2024-02-15T05:10:18;12.20;;;10.25;;
63818;SDS011;49970;54.976;73.248;2024-02-15T05:12:44;18.27;;;10.80;;
63818;SDS011;49970;54.976;73.248;2024-02-15T05:15:14;15.18;;;10.10;;
63818;SDS011;49970;54.976;73.248;2024-02-15T05:17:43;15.27;;;10.35;;
63818;SDS011;49970;54.976;73.248;2024-02-15T05:20:09;10.23;;;8.93;;
63818;SDS011;49970;54.976;73.248;2024-02-15T05:22:40;13.80;;;9.63;;
63818;SDS011;49970;54.976;73.248;2024-02-15T05:25:11;11.82;;;10.63;;
63818;SDS011;49970;54.976;73.248;2024-02-15T05:27:38;13.00;;;10.68;;
63818;SDS011;49970;54.976;73.248;2024-02-15T05:30:05;12.98;;;11.15;;
63818;SDS011;49970;54.976;73.248;2024-02-15T05:32:35;20.00;;;9.85;;
63818;SDS011;49970;54.976;73.248;2024-02-15T05:35:09;14.85;;;10.38;;
63818;SDS011;49970;54.976;73.248;2024-02-15T05:37:38;11.73;;;9.85;;
63818;SDS011;49970;54.976;73.248;2024-02-15T05:40:05;16.17;;;9.82;;
63818;SDS011;49970;54.976;73.248;2024-02-15T05:42:33;11.20;;;10.23;;
63818;SDS011;49970;54.976;73.248;2024-02-15T05:45:26;10.43;;;9.18;;
63818;SDS011;49970;54.976;73.248;2024-02-15T05:47:51;10.00;;;8.88;;
63818;SDS011;49970;54.976;73.248;2024-02-15T05:50:19;10.68;;;9.75;;
63818;SDS011;49970;54.976;73.248;2024-02-15T05:52:47;14.55;;;9.60;;
63818;SDS011;49970;54.976;73.248;2024-02-15T05:55:13;11.40;;;8.93;;
63818;SDS011;49970;54.976;73.248;2024-02-15T05:57:45;15.48;;;12.35;;
63818;SDS011;49970;54.976;73.248;2024-02-15T06:00:12;11.38;;;8.57;;
63818;SDS011;49970;54.976;73.248;2024-02-15T06:02:40;11.15;;;8.90;;
63818;SDS011;49970;54.976;73.248;2024-02-15T06:05:07;10.63;;;9.18;;
63818;SDS011;49970;54.976;73.248;2024-02-15T06:07:36;13.80;;;9.07;;
63818;SDS011;49970;54.976;73.248;2024-02-15T06:10:02;10.43;;;9.52;;
63818;SDS011;49970;54.976;73.248;2024-02-15T06:12:30;12.32;;;9.15;;
63818;SDS011;49970;54.976;73.248;2024-02-15T06:14:57;14.23;;;11.30;;
63818;SDS011;49970;54.976;73.248;2024-02-15T06:17:23;11.82;;;10.60;;
63818;SDS011;49970;54.976;73.248;2024-02-15T06:19:50;16.40;;;10.32;;
63818;SDS011;49970;54.976;73.248;2024-02-15T06:22:16;20.85;;;10.32;;
63818;SDS011;49970;54.976;73.248;2024-02-15T06:24:43;12.93;;;10.10;;
63818;SDS011;49970;54.976;73.248;2024-02-15T06:27:10;12.70;;;10.90;;
63818;SDS011;49970;54.976;73.248;2024-02-15T06:29:37;11.30;;;10.27;;
63818;SDS011;49970;54.976;73.248;2024-02-15T06:32:22;9.15;;;8.40;;
63818;SDS011;49970;54.976;73.248;2024-02-15T06:35:06;16.58;;;10.40;;
63818;SDS011;49970;54.976;73.248;2024-02-15T06:37:51;17.38;;;11.30;;
63818;SDS011;49970;54.976;73.248;2024-02-15T06:40:36;16.33;;;11.38;;
63818;SDS011;49970;54.976;73.248;2024-02-15T06:43:04;13.07;;;11.20;;
63818;SDS011;49970;54.976;73.248;2024-02-15T06:45:30;12.68;;;10.73;;
63818;SDS011;49970;54.976;73.248;2024-02-15T06:47:57;11.05;;;8.85;;
63818;SDS011;49970;54.976;73.248;2024-02-15T06:50:24;12.18;;;8.88;;
63818;SDS011;49970;54.976;73.248;2024-02-15T06:52:51;19.98;;;10.07;;
63818;SDS011;49970;54.976;73.248;2024-02-15T06:55:19;13.52;;;11.27;;
63818;SDS011;49970;54.976;73.248;2024-02-15T06:57:47;11.75;;;10.45;;
63818;SDS011;49970;54.976;73.248;2024-02-15T07:00:14;13.70;;;9.52;;
63818;SDS011;49970;54.976;73.248;2024-02-15T07:02:41;10.20;;;9.30;;
63818;SDS011;49970;54.976;73.248;2024-02-15T07:05:10;10.80;;;9.32;;
63818;SDS011;49970;54.976;73.248;2024-02-15T07:07:36;14.27;;;9.82;;
63818;SDS011;49970;54.976;73.248;2024-02-15T07:10:05;16.67;;;10.93;;
63818;SDS011;49970;54.976;73.248;2024-02-15T07:12:32;11.90;;;10.20;;
63818;SDS011;49970;54.976;73.248;2024-02-15T07:14:58;15.05;;;10.32;;
63818;SDS011;49970;54.976;73.248;2024-02-15T07:17:27;11.45;;;8.63;;
63818;SDS011;49970;54.976;73.248;2024-02-15T07:19:54;9.73;;;8.73;;
63818;SDS011;49970;54.976;73.248;2024-02-15T07:22:21;10.82;;;9.75;;
63818;SDS011;49970;54.976;73.248;2024-02-15T07:24:48;10.88;;;9.55;;
63818;SDS011;49970;54.976;73.248;2024-02-15T07:27:14;12.25;;;9.10;;
63818;SDS011;49970;54.976;73.248;2024-02-15T07:29:40;11.10;;;9.75;;
63818;SDS011;49970;54.976;73.248;2024-02-15T07:32:07;15.00;;;10.98;;
63818;SDS011;49970;54.976;73.248;2024-02-15T07:34:34;37.33;;;8.57;;
63818;SDS011;49970;54.976;73.248;2024-02-15T07:37:01;13.30;;;8.70;;
63818;SDS011;49970;54.976;73.248;2024-02-15T07:39:28;10.35;;;9.35;;
63818;SDS011;49970;54.976;73.248;2024-02-15T07:41:55;12.55;;;9.45;;
63818;SDS011;49970;54.976;73.248;2024-02-15T07:44:22;11.48;;;10.00;;
63818;SDS011;49970;54.976;73.248;2024-02-15T07:46:49;10.73;;;9.63;;
63818;SDS011;49970;54.976;73.248;2024-02-15T07:49:16;10.55;;;9.30;;
63818;SDS011;49970;54.976;73.248;2024-02-15T07:51:45;10.52;;;9.32;;
63818;SDS011;49970;54.976;73.248;2024-02-15T07:54:18;11.85;;;10.75;;
63818;SDS011;49970;54.976;73.248;2024-02-15T07:56:48;9.48;;;8.50;;
63818;SDS011;49970;54.976;73.248;2024-02-15T07:59:15;10.18;;;9.18;;
63818;SDS011;49970;54.976;73.248;2024-02-15T08:01:47;10.05;;;9.18;;
63818;SDS011;49970;54.976;73.248;2024-02-15T08:04:16;12.55;;;9.50;;
63818;SDS011;49970;54.976;73.248;2024-02-15T08:06:43;12.30;;;9.27;;
63818;SDS011;49970;54.976;73.248;2024-02-15T08:09:09;14.50;;;9.50;;
63818;SDS011;49970;54.976;73.248;2024-02-15T08:11:43;11.75;;;10.55;;
63818;SDS011;49970;54.976;73.248;2024-02-15T08:14:10;11.27;;;10.15;;
63818;SDS011;49970;54.976;73.248;2024-02-15T08:16:37;10.23;;;9.23;;
63818;SDS011;49970;54.976;73.248;2024-02-15T08:19:05;9.68;;;8.77;;
63818;SDS011;49970;54.976;73.248;2024-02-15T08:21:33;11.45;;;9.75;;
63818;SDS011;49970;54.976;73.248;2024-02-15T08:24:02;11.98;;;10.40;;
63818;SDS011;49970;54.976;73.248;2024-02-15T08:26:38;9.75;;;8.82;;
63818;SDS011;49970;54.976;73.248;2024-02-15T08:29:05;10.80;;;9.85;;
63818;SDS011;49970;54.976;73.248;2024-02-15T08:31:32;14.02;;;9.23;;
63818;SDS011;49970;54.976;73.248;2024-02-15T08:34:15;9.32;;;8.50;;
63818;SDS011;49970;54.976;73.248;2024-02-15T08:36:44;11.95;;;10.70;;
63818;SDS011;49970;54.976;73.248;2024-02-15T08:39:10;17.55;;;10.02;;
63818;SDS011;49970;54.976;73.248;2024-02-15T08:41:38;11.23;;;10.13;;
63818;SDS011;49970;54.976;73.248;2024-02-15T08:44:05;10.30;;;9.30;;
63818;SDS011;49970;54.976;73.248;2024-02-15T08:46:36;11.53;;;10.33;;
63818;SDS011;49970;54.976;73.248;2024-02-15T08:49:02;11.80;;;10.13;;
63818;SDS011;49970;54.976;73.248;2024-02-15T08:51:29;11.63;;;10.48;;
63818;SDS011;49970;54.976;73.248;2024-02-15T08:53:56;13.15;;;10.43;;
63818;SDS011;49970;54.976;73.248;2024-02-15T08:56:22;21.13;;;10.88;;
63818;SDS011;49970;54.976;73.248;2024-02-15T08:58:49;11.68;;;10.45;;
63818;SDS011;49970;54.976;73.248;2024-02-15T09:01:15;13.40;;;10.38;;
63818;SDS011;49970;54.976;73.248;2024-02-15T09:03:41;11.80;;;10.70;;
63818;SDS011;49970;54.976;73.248;2024-02-15T09:06:08;11.82;;;10.63;;
63818;SDS011;49970;54.976;73.248;2024-02-15T09:08:35;14.77;;;10.95;;
63818;SDS011;49970;54.976;73.248;2024-02-15T09:11:01;15.65;;;10.00;;
63818;SDS011;49970;54.976;73.248;2024-02-15T09:13:28;10.95;;;9.82;;
63818;SDS011;49970;54.976;73.248;2024-02-15T09:15:54;12.18;;;9.48;;
63818;SDS011;49970;54.976;73.248;2024-02-15T09:18:20;10.73;;;9.20;;
63818;SDS011;49970;54.976;73.248;2024-02-15T09:20:48;10.35;;;9.45;;
63818;SDS011;49970;54.976;73.248;2024-02-15T09:25:49;11.63;;;10.52;;
63818;SDS011;49970;54.976;73.248;2024-02-15T09:29:21;9.48;;;8.43;;
63818;SDS011;49970;54.976;73.248;2024-02-15T09:32:54;12.55;;;11.20;;
63818;SDS011;49970;54.976;73.248;2024-02-15T09:35:20;10.68;;;9.57;;
63818;SDS011;49970;54.976;73.248;2024-02-15T09:37:48;12.50;;;9.68;;
63818;SDS011;49970;54.976;73.248;2024-02-15T09:40:15;16.50;;;10.07;;
63818;SDS011;49970;54.976;73.248;2024-02-15T09:42:43;12.57;;;10.13;;
63818;SDS011;49970;54.976;73.248;2024-02-15T09:45:11;12.65;;;11.10;;
63818;SDS011;49970;54.976;73.248;2024-02-15T09:47:38;12.43;;;9.35;;
63818;SDS011;49970;54.976;73.248;2024-02-15T09:50:11;13.07;;;10.00;;
63818;SDS011;49970;54.976;73.248;2024-02-15T09:52:40;19.27;;;12.35;;
63818;SDS011;49970;54.976;73.248;2024-02-15T09:55:09;26.15;;;8.88;;
63818;SDS011;49970;54.976;73.248;2024-02-15T09:58:44;15.95;;;10.85;;
63818;SDS011;49970;54.976;73.248;2024-02-15T10:02:15;12.75;;;10.20;;
63818;SDS011;49970;54.976;73.248;2024-02-15T10:04:44;29.15;;;11.38;;
63818;SDS011;49970;54.976;73.248;2024-02-15T10:07:12;10.30;;;8.05;;
63818;SDS011;49970;54.976;73.248;2024-02-15T10:09:39;11.50;;;9.15;;
63818;SDS011;49970;54.976;73.248;2024-02-15T10:12:08;10.80;;;9.73;;
63818;SDS011;49970;54.976;73.248;2024-02-15T10:15:48;14.23;;;9.45;;
63818;SDS011;49970;54.976;73.248;2024-02-15T10:19:09;11.60;;;10.50;;
63818;SDS011;49970;54.976;73.248;2024-02-15T10:21:38;10.23;;;9.05;;
63818;SDS011;49970;54.976;73.248;2024-02-15T10:24:06;14.95;;;9.88;;
63818;SDS011;49970;54.976;73.248;2024-02-15T10:26:34;11.10;;;9.73;;
63818;SDS011;49970;54.976;73.248;2024-02-15T10:29:09;16.00;;;10.90;;
63818;SDS011;49970;54.976;73.248;2024-02-15T10:32:42;15.75;;;11.30;;
63818;SDS011;49970;54.976;73.248;2024-02-15T10:35:10;13.60;;;10.52;;
63818;SDS011;49970;54.976;73.248;2024-02-15T10:37:41;13.98;;;10.80;;
63818;SDS011;49970;54.976;73.248;2024-02-15T10:40:08;15.45;;;10.15;;
63818;SDS011;49970;54.976;73.248;2024-02-15T10:42:35;14.52;;;9.05;;
63818;SDS011;49970;54.976;73.248;2024-02-15T10:45:03;19.55;;;10.32;;
63818;SDS011;49970;54.976;73.248;2024-02-15T10:47:39;11.65;;;10.10;;
63818;SDS011;49970;54.976;73.248;2024-02-15T10:50:06;21.52;;;10.55;;
63818;SDS011;49970;54.976;73.248;2024-02-15T10:52:33;12.60;;;10.73;;
63818;SDS011;49970;54.976;73.248;2024-02-15T10:55:05;13.63;;;10.95;;
63818;SDS011;49970;54.976;73.248;2024-02-15T10:57:39;16.65;;;11.00;;
63818;SDS011;49970;54.976;73.248;2024-02-15T11:00:12;11.80;;;9.13;;
63818;SDS011;49970;54.976;73.248;2024-02-15T11:03:02;15.15;;;11.35;;
63818;SDS011;49970;54.976;73.248;2024-02-15T11:05:34;14.43;;;12.32;;
63818;SDS011;49970;54.976;73.248;2024-02-15T11:08:07;13.95;;;10.38;;
63818;SDS011;49970;54.976;73.248;2024-02-15T11:10:34;13.13;;;10.13;;
63818;SDS011;49970;54.976;73.248;2024-02-15T11:13:02;12.15;;;10.82;;
63818;SDS011;49970;54.976;73.248;2024-02-15T11:15:50;18.45;;;12.50;;
63818;SDS011;49970;54.976;73.248;2024-02-15T11:19:17;17.25;;;9.93;;
63818;SDS011;49970;54.976;73.248;2024-02-15T11:21:17;14.73;;;11.68;;
63818;SDS011;49970;54.976;73.248;2024-02-15T11:23:44;15.32;;;10.75;;
63818;SDS011;49970;54.976;73.248;2024-02-15T11:35:19;17.00;;;10.75;;
63818;SDS011;49970;54.976;73.248;2024-02-15T11:43:36;13.20;;;10.10;;
63818;SDS011;49970;54.976;73.248;2024-02-15T11:46:35;12.32;;;9.50;;
63818;SDS011;49970;54.976;73.248;2024-02-15T11:49:02;16.25;;;12.13;;
63818;SDS011;49970;54.976;73.248;2024-02-15T11:51:31;25.98;;;11.55;;
63818;SDS011;49970;54.976;73.248;2024-02-15T11:54:20;15.10;;;10.85;;
63818;SDS011;49970;54.976;73.248;2024-02-15T11:56:50;14.18;;;10.70;;
63818;SDS011;49970;54.976;73.248;2024-02-15T11:59:20;16.52;;;11.20;;
63818;SDS011;49970;54.976;73.248;2024-02-15T12:01:57;15.55;;;10.68;;
63818;SDS011;49970;54.976;73.248;2024-02-15T12:04:43;13.32;;;11.57;;
63818;SDS011;49970;54.976;73.248;2024-02-15T12:07:28;24.42;;;12.93;;
63818;SDS011;49970;54.976;73.248;2024-02-15T12:10:19;14.43;;;10.63;;
63818;SDS011;49970;54.976;73.248;2024-02-15T12:13:24;17.58;;;10.38;;
63818;SDS011;49970;54.976;73.248;2024-02-15T12:16:08;19.27;;;12.52;;
63818;SDS011;49970;54.976;73.248;2024-02-15T12:18:53;13.93;;;10.18;;
63818;SDS011;49970;54.976;73.248;2024-02-15T12:21:21;20.33;;;11.85;;
63818;SDS011;49970;54.976;73.248;2024-02-15T12:23:52;17.60;;;12.50;;
63818;SDS011;49970;54.976;73.248;2024-02-15T12:26:37;19.30;;;12.05;;
63818;SDS011;49970;54.976;73.248;2024-02-15T12:29:04;12.32;;;10.38;;
63818;SDS011;49970;54.976;73.248;2024-02-15T12:31:32;20.45;;;12.85;;
63818;SDS011;49970;54.976;73.248;2024-02-15T12:34:21;15.25;;;11.10;;
63818;SDS011;49970;54.976;73.248;2024-02-15T12:36:47;13.75;;;11.60;;
63818;SDS011;49970;54.976;73.248;2024-02-15T12:39:15;21.23;;;11.20;;
63818;SDS011;49970;54.976;73.248;2024-02-15T12:42:01;17.67;;;12.43;;
63818;SDS011;49970;54.976;73.248;2024-02-15T12:44:27;21.20;;;12.48;;
63818;SDS011;49970;54.976;73.248;2024-02-15T12:46:58;24.15;;;12.95;;
63818;SDS011;49970;54.976;73.248;2024-02-15T12:51:52;20.40;;;12.88;;
63818;SDS011;49970;54.976;73.248;2024-02-15T12:55:22;17.88;;;12.35;;
63818;SDS011;49970;54.976;73.248;2024-02-15T12:57:53;19.23;;;13.02;;
63818;SDS011;49970;54.976;73.248;2024-02-15T13:00:22;18.55;;;13.38;;
63818;SDS011;49970;54.976;73.248;2024-02-15T13:02:59;25.48;;;13.98;;
63818;SDS011;49970;54.976;73.248;2024-02-15T13:05:29;17.20;;;12.20;;
63818;SDS011;49970;54.976;73.248;2024-02-15T13:09:19;26.00;;;12.75;;
63818;SDS011;49970;54.976;73.248;2024-02-15T13:11:48;16.25;;;12.32;;
63818;SDS011;49970;54.976;73.248;2024-02-15T13:14:16;23.55;;;14.05;;
63818;SDS011;49970;54.976;73.248;2024-02-15T13:17:02;22.33;;;12.70;;
63818;SDS011;49970;54.976;73.248;2024-02-15T13:19:28;17.48;;;11.73;;
63818;SDS011;49970;54.976;73.248;2024-02-15T13:21:55;12.98;;;11.50;;
63818;SDS011;49970;54.976;73.248;2024-02-15T13:24:23;18.48;;;12.98;;
63818;SDS011;49970;54.976;73.248;2024-02-15T13:27:12;14.23;;;10.40;;
63818;SDS011;49970;54.976;73.248;2024-02-15T13:29:38;17.17;;;13.00;;
63818;SDS011;49970;54.976;73.248;2024-02-15T13:32:07;19.55;;;12.55;;
63818;SDS011;49970;54.976;73.248;2024-02-15T13:34:33;20.65;;;11.90;;
63818;SDS011;49970;54.976;73.248;2024-02-15T13:37:00;16.98;;;12.25;;
63818;SDS011;49970;54.976;73.248;2024-02-15T13:39:30;24.10;;;13.60;;
63818;SDS011;49970;54.976;73.248;2024-02-15T13:42:11;23.30;;;12.00;;
63818;SDS011;49970;54.976;73.248;2024-02-15T13:44:54;16.75;;;14.30;;
63818;SDS011;49970;54.976;73.248;2024-02-15T13:47:21;17.48;;;12.23;;
63818;SDS011;49970;54.976;73.248;2024-02-15T13:49:47;14.63;;;11.30;;
63818;SDS011;49970;54.976;73.248;2024-02-15T13:52:14;20.17;;;13.23;;
63818;SDS011;49970;54.976;73.248;2024-02-15T13:54:42;28.45;;;12.13;;
63818;SDS011;49970;54.976;73.248;2024-02-15T13:57:08;23.60;;;13.68;;
63818;SDS011;49970;54.976;73.248;2024-02-15T13:59:34;23.75;;;13.80;;
63818;SDS011;49970;54.976;73.248;2024-02-15T14:02:22;16.63;;;11.13;;
63818;SDS011;49970;54.976;73.248;2024-02-15T14:04:48;18.02;;;11.70;;
63818;SDS011;49970;54.976;73.248;2024-02-15T14:07:14;17.00;;;10.52;;
63818;SDS011;49970;54.976;73.248;2024-02-15T14:09:42;26.67;;;11.32;;
63818;SDS011;49970;54.976;73.248;2024-02-15T14:12:08;33.72;;;11.48;;
63818;SDS011;49970;54.976;73.248;2024-02-15T14:14:34;18.58;;;11.07;;
63818;SDS011;49970;54.976;73.248;2024-02-15T14:17:01;14.98;;;10.88;;
63818;SDS011;49970;54.976;73.248;2024-02-15T14:19:28;21.50;;;10.95;;
63818;SDS011;49970;54.976;73.248;2024-02-15T14:21:54;23.20;;;12.50;;
63818;SDS011;49970;54.976;73.248;2024-02-15T14:24:21;25.10;;;12.55;;
63818;SDS011;49970;54.976;73.248;2024-02-15T14:26:48;16.77;;;11.52;;
63818;SDS011;49970;54.976;73.248;2024-02-15T14:29:15;19.65;;;12.70;;
63818;SDS011;49970;54.976;73.248;2024-02-15T14:31:46;17.13;;;10.43;;
63818;SDS011;49970;54.976;73.248;2024-02-15T14:34:30;14.13;;;10.55;;
63818;SDS011;49970;54.976;73.248;2024-02-15T14:36:57;20.30;;;11.30;;
63818;SDS011;49970;54.976;73.248;2024-02-15T14:39:27;19.15;;;12.40;;
63818;SDS011;49970;54.976;73.248;2024-02-15T14:41:53;14.30;;;10.45;;
63818;SDS011;49970;54.976;73.248;2024-02-15T14:44:19;12.70;;;10.02;;
63818;SDS011;49970;54.976;73.248;2024-02-15T14:46:46;20.88;;;11.25;;
63818;SDS011;49970;54.976;73.248;2024-02-15T14:49:12;21.08;;;10.95;;
63818;SDS011;49970;54.976;73.248;2024-02-15T14:51:38;21.73;;;11.23;;
63818;SDS011;49970;54.976;73.248;2024-02-15T14:54:05;20.38;;;11.23;;
63818;SDS011;49970;54.976;73.248;2024-02-15T14:56:31;17.23;;;11.35;;
63818;SDS011;49970;54.976;73.248;2024-02-15T14:58:58;25.58;;;12.68;;
63818;SDS011;49970;54.976;73.248;2024-02-15T15:01:26;23.13;;;11.32;;
63818;SDS011;49970;54.976;73.248;2024-02-15T15:03:53;20.70;;;11.50;;
63818;SDS011;49970;54.976;73.248;2024-02-15T15:06:20;14.52;;;11.07;;
63818;SDS011;49970;54.976;73.248;2024-02-15T15:09:05;20.23;;;11.27;;
63818;SDS011;49970;54.976;73.248;2024-02-15T15:11:50;19.90;;;11.18;;
63818;SDS011;49970;54.976;73.248;2024-02-15T15:14:35;19.42;;;10.20;;